首页
METAR-TAF:

METAR-TAF

机场 :

錫爾特, 土耳其

纬度: 37-58-41N, 经度: 41-50-21E, 海拔: 610米

当前天气观测

该预报发布于13小时和34分钟前的12:50 UTC
风速2节,风向多变
温度 31°C
湿度 12%
气压 1013 hPa
能见度10公里或以上
1500米以下无云,无积雨云

METAR: LTCL 311250Z VRB02KT CAVOK 31/M02 Q1013

时间: 05:24 (02:24 UTC)

预报

该预报发布于12小时和44分钟前的13:40 UTC
预报有效从31日的 15点(UTC)到 31日的 24点(UTC)
风速2节,风向多变
能见度10公里或以上
1500米以下无云,无积雨云

TAF: LTCL 311340Z 3115/3124 VRB02KT CAVOK

超过4000个机场的气象观测和天气预报(METAR&TAF报告)。

可查询的气象台以黄色和红色小点在地图上表示。

将鼠标移到小点上方,可查看气象台名称。

然后点击查看天气观测和预报。

如需切换地图:点击带黑十字的绿色按钮放大地图;点击带横线的绿色按钮缩小地图;或者点击绿色箭头查看邻近地区的地图。


METAR-TAF: